Time;durP1;ratioP1;P1;durP2;ratioP2;P2;SDS_P1;SDS_P2;PMS_P1;PMS_P2;Temp;Humidity;BMP_temperature;BMP_pressure;BME280_temperature;BME280_humidity;BME280_pressure;Samples;Min_cycle;Max_cycle;Signal;HPM_P1;HPM_P2
2022/04/07 00:01:31;;;;;;;11.27;8.68;;;9.70;99.90;;;;;;5003683;28;20057;-78
2022/04/07 00:03:57;;;;;;;10.20;8.70;;;9.70;99.90;;;;;;5006870;28;20049;-78
2022/04/07 00:06:23;;;;;;;13.30;10.32;;;9.70;99.90;;;;;;5003676;28;20045;-78
2022/04/07 00:08:49;;;;;;;10.60;9.48;;;9.70;99.90;;;;;;4987674;28;20098;-78
2022/04/07 00:11:15;;;;;;;12.98;10.05;;;9.70;99.90;;;;;;5004227;28;20131;-79
2022/04/07 00:13:41;;;;;;;10.88;9.07;;;9.70;99.90;;;;;;5005558;28;20053;-79
2022/04/07 00:16:07;;;;;;;11.23;9.10;;;9.80;99.90;;;;;;4987089;28;20052;-80
2022/04/07 00:18:33;;;;;;;14.63;9.45;;;9.90;99.90;;;;;;5003484;28;20077;-79
2022/04/07 00:21:02;;;;;;;11.45;8.70;;;9.80;99.90;;;;;;5003224;28;20472;-80
2022/04/07 00:23:28;;;;;;;10.90;8.70;;;9.90;99.90;;;;;;5003978;28;20169;-79
2022/04/07 00:25:54;;;;;;;12.52;9.35;;;9.90;99.90;;;;;;5002088;28;20053;-77
2022/04/07 00:28:20;;;;;;;11.25;8.90;;;9.90;99.90;;;;;;5005001;28;20036;-79
2022/04/07 00:30:46;;;;;;;11.70;9.02;;;9.90;99.90;;;;;;5003290;28;20049;-78
2022/04/07 00:33:11;;;;;;;10.60;8.70;;;9.80;99.90;;;;;;4985818;28;20057;-77
2022/04/07 00:35:37;;;;;;;12.20;9.23;;;9.80;99.90;;;;;;5002368;28;20082;-77
2022/04/07 00:38:04;;;;;;;13.85;10.45;;;9.80;99.90;;;;;;4985959;28;20066;-78
2022/04/07 00:40:30;;;;;;;11.68;9.50;;;9.80;99.90;;;;;;5004355;28;20048;-78
2022/04/07 00:42:56;;;;;;;13.10;9.60;;;9.70;99.90;;;;;;5005798;28;20140;-79
2022/04/07 00:45:23;;;;;;;11.48;9.63;;;9.70;99.90;;;;;;5001372;28;20045;-78
2022/04/07 00:47:50;;;;;;;11.43;9.20;;;9.70;99.90;;;;;;5008936;28;20543;-79
2022/04/07 00:50:18;;;;;;;10.82;8.68;;;9.70;99.90;;;;;;4993634;28;20049;-77
2022/04/07 00:52:54;;;;;;;11.75;8.85;;;9.70;99.90;;;;;;5009302;28;20060;-78
2022/04/07 00:55:20;;;;;;;12.38;9.15;;;9.70;99.90;;;;;;5005826;28;20360;-78
2022/04/07 00:57:46;;;;;;;14.00;9.27;;;9.70;99.90;;;;;;5010260;28;20684;-78
2022/04/07 01:00:14;;;;;;;11.88;9.52;;;9.60;99.90;;;;;;5011016;28;20045;-78
2022/04/07 01:02:39;;;;;;;15.25;10.05;;;9.60;99.90;;;;;;5008932;28;20050;-78
2022/04/07 01:05:07;;;;;;;12.68;8.98;;;9.60;99.90;;;;;;4991178;28;20437;-78
2022/04/07 01:07:37;;;;;;;11.77;9.32;;;9.60;99.90;;;;;;5013363;28;20098;-78
2022/04/07 01:10:08;;;;;;;10.63;8.93;;;9.60;99.90;;;;;;5001367;28;20045;-79
2022/04/07 01:12:35;;;;;;;10.68;9.23;;;9.60;99.90;;;;;;5009677;28;20048;-78
2022/04/07 01:15:04;;;;;;;12.40;9.07;;;9.50;99.90;;;;;;5013939;28;20192;-79
2022/04/07 01:17:30;;;;;;;11.68;8.70;;;9.60;99.90;;;;;;5011953;28;20394;-78
2022/04/07 01:19:57;;;;;;;11.98;8.75;;;9.60;99.90;;;;;;5013605;28;20095;-79
2022/04/07 01:22:23;;;;;;;11.40;9.27;;;9.60;99.90;;;;;;5008873;28;20077;-78
2022/04/07 01:24:50;;;;;;;11.32;9.13;;;9.60;99.90;;;;;;5009092;28;20069;-79
2022/04/07 01:27:17;;;;;;;13.38;9.18;;;9.70;99.90;;;;;;5007925;28;20059;-79
2022/04/07 01:29:44;;;;;;;14.05;9.07;;;9.60;99.90;;;;;;5008690;28;20499;-80
2022/04/07 01:32:36;;;;;;;11.07;8.88;;;9.60;99.90;;;;;;5009198;28;20408;-78
2022/04/07 01:35:02;;;;;;;12.90;9.82;;;9.60;99.90;;;;;;5009367;28;20120;-81
2022/04/07 01:37:29;;;;;;;13.23;9.13;;;9.60;99.90;;;;;;5006160;28;20053;-79
2022/04/07 01:39:55;;;;;;;12.88;9.75;;;9.60;99.90;;;;;;5009292;28;20048;-79
2022/04/07 01:42:21;;;;;;;12.68;9.63;;;9.60;99.90;;;;;;4989902;28;20751;-80
2022/04/07 01:44:50;;;;;;;12.05;8.68;;;9.50;99.90;;;;;;4976406;28;20063;-80
2022/04/07 01:47:20;;;;;;;13.02;8.40;;;9.40;99.90;;;;;;5008209;28;20059;-79
2022/04/07 01:49:52;;;;;;;10.52;6.40;;;9.40;99.90;;;;;;5010354;28;20053;-81
2022/04/07 01:52:18;;;;;;;9.07;6.05;;;9.40;99.90;;;;;;4989879;28;20111;-79
2022/04/07 01:54:44;;;;;;;9.95;6.40;;;9.50;99.90;;;;;;4990511;28;20053;-79
2022/04/07 01:57:11;;;;;;;11.40;7.80;;;9.40;99.90;;;;;;5008852;28;20099;-79
2022/04/07 01:59:37;;;;;;;12.02;8.80;;;9.40;99.90;;;;;;4989086;28;20080;-78
2022/04/07 02:02:03;;;;;;;10.80;8.13;;;9.40;99.90;;;;;;5012306;28;20124;-79
2022/04/07 02:04:29;;;;;;;10.93;7.95;;;9.40;99.90;;;;;;4988220;28;20523;-79
2022/04/07 02:06:55;;;;;;;12.02;7.80;;;9.40;99.90;;;;;;5009748;28;20108;-78
2022/04/07 02:09:21;;;;;;;9.98;7.20;;;9.30;99.90;;;;;;4991191;28;20046;-80
2022/04/07 02:11:47;;;;;;;13.40;7.95;;;9.30;99.90;;;;;;5009955;28;20795;-79
2022/04/07 02:14:13;;;;;;;10.82;7.32;;;9.30;99.90;;;;;;5008942;28;20049;-79
2022/04/07 02:16:39;;;;;;;12.45;7.70;;;9.30;99.90;;;;;;5011592;28;21647;-78
2022/04/07 02:19:05;;;;;;;13.20;8.80;;;9.30;99.90;;;;;;5009941;28;20045;-79
2022/04/07 02:21:32;;;;;;;13.35;9.85;;;9.30;99.90;;;;;;5007082;28;20061;-78
2022/04/07 02:23:59;;;;;;;15.18;9.77;;;9.40;99.90;;;;;;5011269;28;20041;-79
2022/04/07 02:26:24;;;;;;;15.07;10.10;;;9.40;99.90;;;;;;5006787;28;20048;-79
2022/04/07 02:28:50;;;;;;;14.40;9.70;;;9.40;99.90;;;;;;4971780;28;20111;-79
2022/04/07 02:31:16;;;;;;;14.88;9.32;;;9.40;99.90;;;;;;5006352;28;20084;-78
2022/04/07 02:33:42;;;;;;;13.90;8.70;;;9.40;99.90;;;;;;5005302;28;20053;-79
2022/04/07 02:36:09;;;;;;;14.10;8.90;;;9.40;99.90;;;;;;5005788;28;20072;-79
2022/04/07 02:38:36;;;;;;;13.27;8.63;;;9.50;99.90;;;;;;5006614;28;20310;-79
2022/04/07 02:41:02;;;;;;;14.13;9.30;;;9.50;99.90;;;;;;5013322;28;20757;-78
2022/04/07 02:43:28;;;;;;;11.77;8.32;;;9.50;99.90;;;;;;5005367;28;20104;-79
2022/04/07 02:45:55;;;;;;;10.85;8.30;;;9.50;99.90;;;;;;5005283;28;20133;-79
2022/04/07 02:48:22;;;;;;;11.85;7.43;;;9.50;99.90;;;;;;5005786;28;20786;-79
2022/04/07 02:50:48;;;;;;;12.90;6.80;;;9.50;99.90;;;;;;5013213;28;20057;-78
2022/04/07 02:53:14;;;;;;;12.77;6.80;;;9.50;99.90;;;;;;5005577;28;20076;-79
2022/04/07 02:55:40;;;;;;;12.15;6.18;;;9.50;99.90;;;;;;5004241;28;20056;-78
2022/04/07 02:58:06;;;;;;;11.82;6.68;;;9.50;99.90;;;;;;4988279;28;20053;-79
2022/04/07 03:00:32;;;;;;;12.60;6.85;;;9.40;99.90;;;;;;5007025;28;20088;-80
2022/04/07 03:02:58;;;;;;;12.10;6.75;;;9.40;99.90;;;;;;5009967;28;20515;-80
2022/04/07 03:05:24;;;;;;;10.13;6.72;;;9.40;99.90;;;;;;4993357;28;20049;-80
2022/04/07 03:07:49;;;;;;;13.70;6.15;;;9.30;99.90;;;;;;5004880;28;20059;-81
2022/04/07 03:10:15;;;;;;;10.07;5.97;;;9.30;99.90;;;;;;4990496;28;20098;-80
2022/04/07 03:12:42;;;;;;;11.05;5.90;;;9.30;99.90;;;;;;4991282;28;20456;-80
2022/04/07 03:15:08;;;;;;;11.95;5.63;;;9.30;99.90;;;;;;4990817;28;20052;-80
2022/04/07 03:17:34;;;;;;;10.40;5.55;;;9.30;99.90;;;;;;4988192;28;20057;-80
2022/04/07 03:20:01;;;;;;;8.85;4.97;;;9.30;99.90;;;;;;4991760;28;20057;-78
2022/04/07 03:22:27;;;;;;;9.90;4.30;;;9.30;99.90;;;;;;5008224;28;20054;-80
2022/04/07 03:24:53;;;;;;;13.90;5.22;;;9.30;99.90;;;;;;5007899;28;20134;-80
2022/04/07 03:27:19;;;;;;;14.27;4.90;;;9.30;99.90;;;;;;5006897;28;20049;-80
2022/04/07 03:29:46;;;;;;;14.00;4.80;;;9.30;99.90;;;;;;4989073;28;20082;-80
2022/04/07 03:32:11;;;;;;;13.20;4.80;;;9.30;99.90;;;;;;5006940;28;20037;-79
2022/04/07 03:34:37;;;;;;;10.43;4.28;;;9.30;99.90;;;;;;5007446;28;20049;-82
2022/04/07 03:37:05;;;;;;;11.82;4.18;;;9.30;99.90;;;;;;5005266;28;20235;-79
2022/04/07 03:39:34;;;;;;;17.40;4.90;;;9.30;99.90;;;;;;4989130;28;20053;-80
2022/04/07 03:42:00;;;;;;;15.23;5.10;;;9.30;99.90;;;;;;5004393;28;20060;-82
2022/04/07 03:44:26;;;;;;;12.88;4.78;;;9.20;99.90;;;;;;5007202;28;20088;-81
2022/04/07 03:46:52;;;;;;;16.25;5.18;;;9.20;99.90;;;;;;5004292;28;20058;-80
2022/04/07 03:49:20;;;;;;;17.48;5.00;;;9.10;99.90;;;;;;4985272;28;20621;-82
2022/04/07 03:51:45;;;;;;;13.25;5.38;;;9.20;99.90;;;;;;5004562;28;20061;-81
2022/04/07 03:54:11;;;;;;;13.82;5.13;;;9.10;99.90;;;;;;5005930;28;20095;-81
2022/04/07 03:56:38;;;;;;;14.23;5.15;;;9.20;99.90;;;;;;5004369;28;20503;-82
2022/04/07 03:59:04;;;;;;;15.20;5.50;;;9.10;99.90;;;;;;4985246;28;20058;-81
2022/04/07 04:01:31;;;;;;;13.70;5.32;;;9.20;99.90;;;;;;5005903;28;20103;-80
2022/04/07 04:03:57;;;;;;;14.95;5.65;;;9.20;99.90;;;;;;4994805;28;20071;-81
2022/04/07 04:06:22;;;;;;;13.20;5.60;;;9.10;99.90;;;;;;5006014;28;20599;-80
2022/04/07 04:08:48;;;;;;;12.55;5.18;;;9.10;99.90;;;;;;4998778;28;20287;-80
2022/04/07 04:11:14;;;;;;;16.02;5.82;;;9.00;99.90;;;;;;5008170;28;20116;-80
2022/04/07 04:13:40;;;;;;;16.13;5.60;;;9.10;99.90;;;;;;5004706;28;20520;-81
2022/04/07 04:16:08;;;;;;;17.10;6.15;;;9.20;99.90;;;;;;5006246;28;20041;-80
2022/04/07 04:18:35;;;;;;;18.08;5.85;;;9.20;99.90;;;;;;5002949;28;20597;-82
2022/04/07 04:21:01;;;;;;;21.33;6.13;;;9.20;99.90;;;;;;4993770;28;20152;-80
2022/04/07 04:23:27;;;;;;;18.85;5.25;;;9.20;99.90;;;;;;5010245;28;20056;-79
2022/04/07 04:25:53;;;;;;;16.13;5.10;;;9.20;99.90;;;;;;5007026;28;20041;-80
2022/04/07 04:28:19;;;;;;;19.50;5.22;;;9.20;99.90;;;;;;4985339;28;20045;-83
2022/04/07 04:30:45;;;;;;;16.17;5.63;;;9.30;99.90;;;;;;5008283;28;20140;-80
2022/04/07 04:33:11;;;;;;;20.23;5.95;;;9.30;99.90;;;;;;4968541;28;20053;-80
2022/04/07 04:35:37;;;;;;;15.57;5.50;;;9.20;99.90;;;;;;5003859;28;20044;-80
2022/04/07 04:38:03;;;;;;;20.52;5.97;;;9.20;99.90;;;;;;5004284;28;20077;-80
2022/04/07 04:40:29;;;;;;;20.05;5.65;;;9.10;99.90;;;;;;5007141;28;20236;-80
2022/04/07 04:42:55;;;;;;;16.88;6.15;;;9.20;99.90;;;;;;4983823;28;21072;-79
2022/04/07 04:45:20;;;;;;;24.08;7.07;;;9.10;99.90;;;;;;4982236;28;20055;-81
2022/04/07 04:47:46;;;;;;;20.73;6.60;;;9.10;99.90;;;;;;4982910;28;20856;-81
2022/04/07 04:50:13;;;;;;;19.88;6.45;;;9.10;99.90;;;;;;5004018;28;20041;-79
2022/04/07 04:52:40;;;;;;;17.95;6.45;;;9.10;99.90;;;;;;5009230;28;20134;-80
2022/04/07 04:55:06;;;;;;;18.95;6.68;;;9.00;99.90;;;;;;5001491;28;20053;-80
2022/04/07 04:57:32;;;;;;;19.25;6.60;;;9.10;99.90;;;;;;5006060;28;20061;-80
2022/04/07 04:59:58;;;;;;;21.92;6.32;;;9.10;99.90;;;;;;4991203;28;20068;-81
2022/04/07 05:02:24;;;;;;;20.00;6.40;;;9.10;99.90;;;;;;5006904;28;20071;-80
2022/04/07 05:04:50;;;;;;;22.25;6.57;;;9.10;99.90;;;;;;5008002;28;20711;-80
2022/04/07 05:07:16;;;;;;;17.27;6.07;;;9.10;99.90;;;;;;5003327;28;20126;-83
2022/04/07 05:09:42;;;;;;;15.38;5.03;;;9.20;99.90;;;;;;4987042;28;20527;-81
2022/04/07 05:12:07;;;;;;;17.27;5.20;;;9.30;99.90;;;;;;4983986;28;20050;-84
2022/04/07 05:14:33;;;;;;;15.05;5.07;;;9.20;99.90;;;;;;4986457;28;20115;-80
2022/04/07 05:16:59;;;;;;;15.10;4.72;;;9.30;99.90;;;;;;5007298;28;20501;-81
2022/04/07 05:19:25;;;;;;;16.65;5.22;;;9.30;99.90;;;;;;4999894;28;20127;-82
2022/04/07 05:21:51;;;;;;;16.92;4.88;;;9.30;99.90;;;;;;4973646;28;20061;-83
2022/04/07 05:24:17;;;;;;;15.52;4.40;;;9.30;99.90;;;;;;4970987;28;20072;-81
2022/04/07 05:26:47;;;;;;;14.55;4.30;;;9.30;99.90;;;;;;4969747;28;20160;-82
2022/04/07 05:29:13;;;;;;;14.20;4.80;;;9.30;99.90;;;;;;4971178;28;20053;-82
2022/04/07 05:31:38;;;;;;;15.75;5.30;;;9.30;99.90;;;;;;4975187;28;20122;-82
2022/04/07 05:34:05;;;;;;;17.08;4.65;;;9.30;99.90;;;;;;4979517;28;20060;-81
2022/04/07 05:36:31;;;;;;;14.80;4.00;;;9.30;99.90;;;;;;4977540;28;20820;-82
2022/04/07 05:38:57;;;;;;;15.05;4.63;;;9.20;99.90;;;;;;4976714;28;20049;-82
2022/04/07 05:41:24;;;;;;;15.02;4.53;;;9.20;99.90;;;;;;4978203;28;20053;-82
2022/04/07 05:43:50;;;;;;;13.05;4.30;;;9.20;99.90;;;;;;4976573;28;20563;-81
2022/04/07 05:46:16;;;;;;;15.15;4.45;;;9.30;99.90;;;;;;4965068;28;20110;-84
2022/04/07 05:48:42;;;;;;;13.80;3.60;;;9.20;99.90;;;;;;4933529;28;20584;-84
2022/04/07 05:51:07;;;;;;;14.10;4.68;;;9.30;99.90;;;;;;4967962;28;20099;-82
2022/04/07 05:53:33;;;;;;;14.77;4.53;;;9.20;99.90;;;;;;4983208;28;20053;-82
2022/04/07 05:55:59;;;;;;;14.02;3.72;;;9.20;99.90;;;;;;4971740;28;20508;-83
2022/04/07 05:58:25;;;;;;;13.68;3.92;;;9.20;99.90;;;;;;4980783;28;20811;-83
2022/04/07 06:00:51;;;;;;;15.40;4.13;;;9.30;99.90;;;;;;4964672;28;20045;-87
2022/04/07 06:03:17;;;;;;;13.20;4.22;;;9.30;99.90;;;;;;4969297;28;20580;-81
2022/04/07 06:05:43;;;;;;;14.20;4.25;;;9.40;99.90;;;;;;4983164;28;20503;-84
2022/04/07 06:08:09;;;;;;;11.48;3.75;;;9.30;99.90;;;;;;4963279;28;20052;-79
2022/04/07 06:10:36;;;;;;;13.52;3.92;;;9.40;99.90;;;;;;4988346;28;20543;-83
2022/04/07 06:13:02;;;;;;;12.80;3.70;;;9.50;99.90;;;;;;4964017;28;20551;-85
2022/04/07 06:15:29;;;;;;;14.15;3.60;;;9.30;99.90;;;;;;4977646;28;20049;-83
2022/04/07 06:17:55;;;;;;;13.90;3.60;;;9.30;99.90;;;;;;4979490;28;20160;-83
2022/04/07 06:20:21;;;;;;;11.55;3.78;;;9.20;99.90;;;;;;4981493;28;20053;-82
2022/04/07 06:22:47;;;;;;;4.72;1.10;;;9.10;99.90;;;;;;4997871;28;20543;-80
2022/04/07 06:25:13;;;;;;;2.97;0.82;;;8.10;99.90;;;;;;4976760;28;20049;-79
2022/04/07 06:27:44;;;;;;;5.20;1.00;;;7.10;99.90;;;;;;4999974;28;20349;-80
2022/04/07 06:30:12;;;;;;;5.25;0.90;;;6.50;99.90;;;;;;5003020;28;20728;-80
2022/04/07 06:32:39;;;;;;;3.78;1.00;;;6.40;99.90;;;;;;4978463;28;20053;-80
2022/04/07 06:35:06;;;;;;;4.43;1.00;;;6.30;99.90;;;;;;4998225;28;20049;-80
2022/04/07 06:37:43;;;;;;;4.18;0.90;;;6.30;99.90;;;;;;4979947;28;20049;-80
2022/04/07 06:40:11;;;;;;;4.70;1.08;;;6.30;99.90;;;;;;4978770;28;20049;-81
2022/04/07 06:42:37;;;;;;;3.95;0.93;;;6.30;99.90;;;;;;4982510;28;20056;-80
2022/04/07 06:45:04;;;;;;;3.70;0.95;;;6.30;99.90;;;;;;4980901;28;20292;-81
2022/04/07 06:47:39;;;;;;;4.22;1.10;;;6.40;99.90;;;;;;4974066;28;20048;-78
2022/04/07 06:50:07;;;;;;;4.45;0.88;;;6.30;99.90;;;;;;5009732;28;20041;-80
2022/04/07 06:52:33;;;;;;;3.83;0.90;;;6.40;99.90;;;;;;4992859;28;20053;-80
2022/04/07 06:54:59;;;;;;;4.95;1.00;;;6.40;99.90;;;;;;4991289;28;20046;-80
2022/04/07 06:57:24;;;;;;;5.00;1.08;;;6.30;99.90;;;;;;4992720;28;20053;-80
2022/04/07 06:59:50;;;;;;;3.00;1.10;;;6.40;99.90;;;;;;5009616;28;20055;-79
2022/04/07 07:02:16;;;;;;;5.65;0.90;;;6.40;99.90;;;;;;5011732;28;20489;-79
2022/04/07 07:04:42;;;;;;;3.20;0.77;;;6.30;99.90;;;;;;5007967;28;20049;-79
2022/04/07 07:07:10;;;;;;;3.65;0.80;;;6.30;99.90;;;;;;4997089;28;20045;-79
2022/04/07 07:09:35;;;;;;;3.20;0.70;;;6.20;99.90;;;;;;5008683;28;20128;-79
2022/04/07 07:12:01;;;;;;;2.95;0.80;;;6.10;99.90;;;;;;5009680;28;20044;-79
2022/04/07 07:14:27;;;;;;;5.45;0.80;;;6.10;99.90;;;;;;5012098;28;20049;-79
2022/04/07 07:16:53;;;;;;;4.82;0.90;;;6.10;99.90;;;;;;4990230;28;20057;-79
2022/04/07 07:19:20;;;;;;;3.22;0.80;;;6.10;99.90;;;;;;5006477;28;20048;-79
2022/04/07 07:21:46;;;;;;;3.53;0.70;;;6.00;99.90;;;;;;5007443;28;20065;-79
2022/04/07 07:24:12;;;;;;;2.50;0.70;;;6.00;99.90;;;;;;4994562;28;20131;-82
2022/04/07 07:26:37;;;;;;;2.42;0.60;;;5.90;99.90;;;;;;4986262;28;20116;-80
2022/04/07 07:29:03;;;;;;;3.83;0.80;;;5.80;99.90;;;;;;5010641;28;20042;-78
2022/04/07 07:31:30;;;;;;;2.85;0.70;;;5.70;99.90;;;;;;5008523;28;20046;-77
2022/04/07 07:33:56;;;;;;;3.08;0.90;;;5.70;99.90;;;;;;5000744;28;20053;-77
2022/04/07 07:36:22;;;;;;;4.38;0.88;;;5.60;99.90;;;;;;5004248;28;20053;-78
2022/04/07 07:38:48;;;;;;;5.43;0.90;;;5.50;99.90;;;;;;4992997;28;20882;-78
2022/04/07 07:41:14;;;;;;;4.55;1.10;;;5.50;99.90;;;;;;5010319;28;20153;-77
2022/04/07 07:43:39;;;;;;;4.50;1.00;;;5.40;99.90;;;;;;4988102;28;20053;-79
2022/04/07 07:46:05;;;;;;;5.35;1.17;;;5.50;99.90;;;;;;4987700;28;20045;-78
2022/04/07 07:48:31;;;;;;;2.65;0.82;;;5.30;99.90;;;;;;5006362;28;20493;-78
2022/04/07 07:50:58;;;;;;;2.85;0.82;;;5.30;99.90;;;;;;5009159;28;20872;-79
2022/04/07 07:53:24;;;;;;;3.30;0.95;;;5.30;99.90;;;;;;4993673;28;20080;-79
2022/04/07 07:55:50;;;;;;;5.35;1.10;;;5.30;99.90;;;;;;4990814;28;20087;-79
2022/04/07 07:58:16;;;;;;;5.95;1.15;;;5.30;99.90;;;;;;4990073;28;20058;-79
2022/04/07 08:00:42;;;;;;;7.25;1.27;;;5.40;99.90;;;;;;5009669;28;20052;-79
2022/04/07 08:03:08;;;;;;;10.05;1.48;;;5.30;99.90;;;;;;5005768;28;20121;-79
2022/04/07 08:05:35;;;;;;;5.10;1.20;;;5.30;99.90;;;;;;4985207;28;20072;-80
2022/04/07 08:08:01;;;;;;;8.02;1.60;;;5.30;99.90;;;;;;4996473;28;20096;-79
2022/04/07 08:10:27;;;;;;;7.32;1.23;;;5.30;99.90;;;;;;4998819;28;21068;-79
2022/04/07 08:12:53;;;;;;;6.95;1.20;;;5.40;99.90;;;;;;5007107;28;20136;-79
2022/04/07 08:15:19;;;;;;;6.15;1.23;;;5.30;99.90;;;;;;5009277;28;20532;-79
2022/04/07 08:17:45;;;;;;;7.25;1.10;;;5.30;99.90;;;;;;5011513;28;20119;-80
2022/04/07 08:20:12;;;;;;;6.32;1.30;;;5.30;99.90;;;;;;4989665;28;20056;-79
2022/04/07 08:22:37;;;;;;;3.80;1.05;;;5.30;99.90;;;;;;5010649;28;20378;-79
2022/04/07 08:25:04;;;;;;;4.88;1.15;;;5.40;99.90;;;;;;4989965;28;20056;-80
2022/04/07 08:27:30;;;;;;;5.45;1.13;;;5.40;99.90;;;;;;4992496;28;20053;-79
2022/04/07 08:29:56;;;;;;;5.15;1.08;;;5.40;99.90;;;;;;5010547;28;20568;-79
2022/04/07 08:32:22;;;;;;;7.28;1.25;;;5.30;99.90;;;;;;5008573;28;20045;-81
2022/04/07 08:34:47;;;;;;;5.05;1.00;;;5.40;99.90;;;;;;4992099;28;20043;-79
2022/04/07 08:37:14;;;;;;;6.70;1.25;;;5.50;99.90;;;;;;5006391;28;20045;-79
2022/04/07 08:39:39;;;;;;;3.95;0.93;;;5.50;99.90;;;;;;5004558;28;20320;-79
2022/04/07 08:42:06;;;;;;;6.28;1.15;;;5.50;99.90;;;;;;4990839;28;20539;-78
2022/04/07 08:44:32;;;;;;;6.45;1.10;;;5.50;99.90;;;;;;5006782;28;20049;-79
2022/04/07 08:46:59;;;;;;;2.42;0.95;;;5.60;99.90;;;;;;4990127;28;20508;-79
2022/04/07 08:49:29;;;;;;;3.38;0.85;;;5.70;99.90;;;;;;4984570;28;20518;-79
2022/04/07 08:51:55;;;;;;;2.97;0.80;;;5.90;99.90;;;;;;5004649;28;20186;-78
2022/04/07 08:54:22;;;;;;;6.28;1.20;;;6.10;99.90;;;;;;5006625;28;20045;-79
2022/04/07 08:56:49;;;;;;;3.67;0.98;;;6.00;99.90;;;;;;4992156;28;20053;-78
2022/04/07 08:59:15;;;;;;;6.70;1.30;;;6.00;99.90;;;;;;5007649;28;20045;-78
2022/04/07 09:01:41;;;;;;;4.93;1.30;;;6.10;99.90;;;;;;5010957;28;20048;-77
2022/04/07 09:04:10;;;;;;;3.58;1.05;;;6.20;99.90;;;;;;4992978;28;20514;-78
2022/04/07 09:06:38;;;;;;;4.47;1.00;;;6.50;99.90;;;;;;4994980;28;20141;-78
2022/04/07 09:09:19;;;;;;;5.38;1.20;;;7.50;99.90;;;;;;4990990;28;20068;-79
2022/04/07 09:11:45;;;;;;;8.10;1.30;;;8.00;99.90;;;;;;5011204;28;20152;-78
2022/04/07 09:14:12;;;;;;;5.95;1.38;;;8.40;99.90;;;;;;5011353;28;20474;-79
2022/04/07 09:16:41;;;;;;;5.35;1.17;;;8.70;99.90;;;;;;5008646;28;20448;-80
2022/04/07 09:19:08;;;;;;;5.32;1.27;;;8.90;99.90;;;;;;4992368;28;20052;-79
2022/04/07 09:21:35;;;;;;;4.95;1.00;;;9.10;99.90;;;;;;5013895;28;20065;-79
2022/04/07 09:24:05;;;;;;;5.05;1.10;;;9.40;99.90;;;;;;5011555;28;20377;-79
2022/04/07 09:26:35;;;;;;;4.05;1.20;;;9.60;99.90;;;;;;4988408;28;20056;-81
2022/04/07 09:29:08;;;;;;;5.13;1.42;;;9.80;99.90;;;;;;4992440;28;20045;-80
2022/04/07 09:31:40;;;;;;;5.47;1.20;;;9.90;99.90;;;;;;5009924;28;20779;-80
2022/04/07 09:34:06;;;;;;;6.53;1.30;;;10.20;99.90;;;;;;5006975;28;20042;-80
2022/04/07 09:36:32;;;;;;;8.10;1.42;;;10.40;99.90;;;;;;4992206;28;20103;-81
2022/04/07 09:39:00;;;;;;;6.88;1.45;;;10.70;99.90;;;;;;4992574;28;20759;-79
2022/04/07 09:41:31;;;;;;;5.32;1.30;;;10.70;99.90;;;;;;5011048;28;20514;-79
2022/04/07 09:43:59;;;;;;;8.38;1.27;;;10.80;99.90;;;;;;5016367;28;20045;-80
2022/04/07 09:46:38;;;;;;;8.82;1.83;;;11.10;99.90;;;;;;4996322;28;20849;-81
2022/04/07 09:49:07;;;;;;;10.95;1.83;;;11.20;99.90;;;;;;5008907;28;20056;-82
2022/04/07 09:51:45;;;;;;;7.63;1.40;;;11.00;99.90;;;;;;5012368;28;20060;-86
2022/04/07 09:54:12;;;;;;;9.38;1.70;;;11.00;99.90;;;;;;5020224;28;20088;-79
2022/04/07 09:56:38;;;;;;;11.15;1.67;;;11.10;99.90;;;;;;5013844;28;20073;-82
2022/04/07 09:59:08;;;;;;;7.90;2.03;;;10.80;99.90;;;;;;5006565;28;20132;-80
2022/04/07 10:01:38;;;;;;;6.95;1.40;;;10.50;99.90;;;;;;5012123;28;20463;-80
2022/04/07 10:04:08;;;;;;;12.00;1.95;;;10.70;99.90;;;;;;5011648;28;20045;-82
2022/04/07 10:06:37;;;;;;;9.02;1.60;;;10.60;99.90;;;;;;5012043;28;20457;-81
2022/04/07 10:09:08;;;;;;;9.60;1.75;;;10.50;99.90;;;;;;5009652;28;20972;-81
2022/04/07 10:11:34;;;;;;;8.85;1.65;;;10.80;99.90;;;;;;5012637;28;20045;-80
2022/04/07 10:14:03;;;;;;;11.20;1.90;;;10.90;99.90;;;;;;4995979;28;20053;-78
2022/04/07 10:16:29;;;;;;;10.40;1.92;;;10.90;99.90;;;;;;4994681;28;20044;-81
2022/04/07 10:19:10;;;;;;;10.45;2.17;;;10.80;99.90;;;;;;4977032;28;20049;-82
2022/04/07 10:21:55;;;;;;;9.82;1.85;;;11.10;99.90;;;;;;5011037;28;20120;-82
2022/04/07 10:24:28;;;;;;;7.95;1.50;;;10.90;99.90;;;;;;5010108;28;20091;-79
2022/04/07 10:26:55;;;;;;;8.35;1.42;;;10.70;99.90;;;;;;5010918;28;20045;-81
2022/04/07 10:29:24;;;;;;;8.93;1.95;;;11.00;99.90;;;;;;4994361;28;20046;-82
2022/04/07 10:32:11;;;;;;;7.85;1.70;;;11.10;99.90;;;;;;5010774;28;20110;-81
2022/04/07 10:34:42;;;;;;;9.82;1.80;;;11.10;99.90;;;;;;4992690;28;20075;-81
2022/04/07 10:37:09;;;;;;;11.63;2.08;;;11.10;99.90;;;;;;4994195;28;20532;-80
2022/04/07 10:39:39;;;;;;;11.02;2.03;;;11.00;99.90;;;;;;4991630;28;20048;-83
2022/04/07 10:42:05;;;;;;;8.50;1.90;;;11.60;99.90;;;;;;4992383;28;20073;-80
2022/04/07 10:44:33;;;;;;;10.82;1.88;;;11.30;99.90;;;;;;5011359;28;20053;-81
2022/04/07 10:47:08;;;;;;;10.15;2.00;;;11.10;99.90;;;;;;5014420;28;20053;-82
2022/04/07 10:49:34;;;;;;;8.38;1.63;;;10.80;99.90;;;;;;4974608;28;20124;-83
2022/04/07 10:52:06;;;;;;;8.65;1.83;;;10.90;99.90;;;;;;5011234;28;20045;-80
2022/04/07 10:54:33;;;;;;;9.80;2.08;;;10.70;99.90;;;;;;5010090;28;20136;-78
2022/04/07 10:57:01;;;;;;;12.18;1.88;;;10.50;99.90;;;;;;5010776;28;20056;-83
2022/04/07 10:59:37;;;;;;;11.63;2.25;;;10.50;99.90;;;;;;4990844;28;20408;-79
2022/04/07 11:02:12;;;;;;;12.18;2.28;;;10.50;99.90;;;;;;5009678;28;20049;-80
2022/04/07 11:05:10;;;;;;;12.23;2.72;;;10.60;99.90;;;;;;4992877;28;20104;-80
2022/04/07 11:07:52;;;;;;;12.95;2.20;;;10.90;99.90;;;;;;5011518;28;20107;-78
2022/04/07 11:10:39;;;;;;;14.07;1.92;;;11.40;99.90;;;;;;5010804;28;20056;-80
2022/04/07 11:13:05;;;;;;;11.02;2.20;;;11.20;99.90;;;;;;5010516;28;20049;-79
2022/04/07 11:15:43;;;;;;;15.40;2.42;;;11.10;99.90;;;;;;4994345;28;20628;-81
2022/04/07 11:18:26;;;;;;;13.05;2.10;;;11.00;99.90;;;;;;4995056;28;20107;-78
2022/04/07 11:21:09;;;;;;;15.43;2.58;;;11.80;99.90;;;;;;4992533;28;20049;-78
2022/04/07 11:23:40;;;;;;;14.70;2.53;;;12.20;99.90;;;;;;4974578;28;20695;-81
2022/04/07 11:26:10;;;;;;;13.23;2.47;;;11.90;99.90;;;;;;4992828;28;20287;-79
2022/04/07 11:28:37;;;;;;;12.05;2.20;;;11.40;99.90;;;;;;4992910;28;20049;-79
2022/04/07 11:31:04;;;;;;;13.10;2.58;;;11.10;99.90;;;;;;5007168;28;20049;-81
2022/04/07 11:33:30;;;;;;;8.38;1.70;;;10.80;99.90;;;;;;4993148;28;20061;-82
2022/04/07 11:35:59;;;;;;;11.20;2.20;;;10.50;99.90;;;;;;4992819;28;20041;-80
2022/04/07 11:38:29;;;;;;;15.85;2.60;;;10.40;99.90;;;;;;5009174;28;20491;-79
2022/04/07 11:40:59;;;;;;;10.52;2.40;;;10.30;99.90;;;;;;5012167;28;20135;-78
2022/04/07 11:43:25;;;;;;;12.15;1.85;;;10.30;99.90;;;;;;5010495;28;20044;-81
2022/04/07 11:45:52;;;;;;;11.43;2.30;;;10.00;99.90;;;;;;5012195;28;20514;-84
2022/04/07 11:48:18;;;;;;;11.50;2.33;;;10.80;99.90;;;;;;4996907;28;20051;-80
2022/04/07 11:50:44;;;;;;;12.48;2.17;;;11.30;99.90;;;;;;5010386;28;20250;-79
2022/04/07 11:53:10;;;;;;;10.27;2.10;;;11.50;99.90;;;;;;5006818;28;20053;-78
2022/04/07 11:55:36;;;;;;;13.60;2.50;;;11.40;99.90;;;;;;5008131;28;20049;-79
2022/04/07 11:58:02;;;;;;;9.30;2.20;;;12.00;99.90;;;;;;5009149;28;20690;-76
2022/04/07 12:00:34;;;;;;;10.18;2.33;;;12.20;99.90;;;;;;5010725;28;20049;-81
2022/04/07 12:03:05;;;;;;;11.25;2.38;;;12.00;99.90;;;;;;5010309;28;20048;-78
2022/04/07 12:05:35;;;;;;;12.98;2.72;;;11.80;99.90;;;;;;4991621;28;20152;-77
2022/04/07 12:08:09;;;;;;;10.80;2.38;;;11.50;99.90;;;;;;5011816;28;20076;-79
2022/04/07 12:10:35;;;;;;;12.88;2.60;;;11.50;99.90;;;;;;4982297;28;20156;-78
2022/04/07 12:13:02;;;;;;;12.32;2.25;;;11.30;99.90;;;;;;5007673;28;20056;-78
2022/04/07 12:15:28;;;;;;;14.65;2.78;;;11.40;99.90;;;;;;5011528;28;20038;-80
2022/04/07 12:18:02;;;;;;;10.95;2.53;;;11.90;99.90;;;;;;4992833;28;20057;-77
2022/04/07 12:20:29;;;;;;;10.18;2.60;;;12.50;99.90;;;;;;5008765;28;20585;-80
2022/04/07 12:23:09;;;;;;;16.75;3.25;;;11.70;99.90;;;;;;5009852;28;20057;-78
2022/04/07 12:25:42;;;;;;;11.35;2.63;;;12.10;99.90;;;;;;4991648;28;20049;-79
2022/04/07 12:28:13;;;;;;;12.45;2.30;;;12.30;99.90;;;;;;5000825;28;20127;-80
2022/04/07 12:30:52;;;;;;;17.52;2.85;;;12.70;99.90;;;;;;4993666;28;20134;-84
2022/04/07 12:33:38;;;;;;;14.38;2.67;;;12.30;99.90;;;;;;4999631;28;20053;-78
2022/04/07 12:36:05;;;;;;;10.77;2.58;;;11.80;99.90;;;;;;5010367;28;20050;-80
2022/04/07 12:38:31;;;;;;;13.77;2.30;;;11.60;99.90;;;;;;4990977;28;20715;-80
2022/04/07 12:41:15;;;;;;;10.80;1.98;;;11.20;99.90;;;;;;4990580;28;20518;-80
2022/04/07 12:43:51;;;;;;;14.95;2.75;;;10.90;99.90;;;;;;4990772;28;20394;-81
2022/04/07 12:46:20;;;;;;;16.38;2.92;;;11.10;99.90;;;;;;5008826;28;20479;-79
2022/04/07 12:49:05;;;;;;;11.68;2.38;;;11.70;99.90;;;;;;4995457;28;20057;-83
2022/04/07 12:51:33;;;;;;;16.13;3.15;;;11.90;99.90;;;;;;5011867;28;20795;-84